CheckWX is a tool to help pilots better visualize weather data.  It is not intended as a substitute for an official pre-flight weather briefing.

20:57:18 UTC

OIBK TAF
Kish International Airport
Kish Island, Iran
TAF OIBK 221730Z 2218/2324 05012KT 4000 RA BR FEW025CB SCT030 BKN090 BECMG 2305/2307 6000 04022KT TEMPO 2309/2315 4000 TSRA SCT025CB SCT030 BKN090 BECMG 2322/2323 04012KT 4000 BR

Mar-22@
18:00 UTC

Mar-22 @ 18:00 UTC

Mar-23@
05:00 UTC

Mar-23 @ 05:00 UTC

TAF OIBK 221730Z 2218/2324 05012KT 4000 RA BR FEW025CB SCT030 BKN090
Wind
  • 050° at 12 KTS
Conditions
Rain, Mist
Cloud Levels
  • Few at 2,500' AGL
  • Scattered at 3,000' AGL
  • Broken at 9,000' AGL

Mar-23@
05:00 UTC

Mar-23 @ 05:00 UTC

Mar-23@
22:00 UTC

Mar-23 @ 22:00 UTC

BECMG 2305/2307 6000 04022KT

Becoming

Becoming Conditions expected by Sat, Mar 23, 2019 @ 07:00 UTC

Wind
  • 040° at 22 KTS
Conditions
Rain, Mist
Cloud Levels
  • Few at 2,500' AGL
  • Scattered at 3,000' AGL
  • Broken at 9,000' AGL

Mar-23@
09:00 UTC

Mar-23 @ 09:00 UTC

Mar-23@
15:00 UTC

Mar-23 @ 15:00 UTC

TEMPO 2309/2315 4000 TSRA SCT025CB SCT030 BKN090

Temporary

Temporary Changes expected for less than half the time period

Conditions
Thunderstorm, Rain
Cloud Levels
  • Scattered at 2,500' AGL
  • Scattered at 3,000' AGL
  • Broken at 9,000' AGL

Mar-23@
22:00 UTC

Mar-23 @ 22:00 UTC

Mar-24@
00:00 UTC

Mar-24 @ 00:00 UTC

BECMG 2322/2323 04012KT 4000 BR

Becoming

Becoming Conditions expected by Sat, Mar 23, 2019 @ 23:00 UTC

Wind
  • 040° at 12 KTS
Conditions
Mist
Cloud Levels
  • Few at 2,500' AGL
  • Scattered at 3,000' AGL
  • Broken at 9,000' AGL